East Millstone, New Jersey
Current Conditions -  °F | °C
As of 9:53 AM on Friday 24 Oct 2014 (Local Time) from KSMQ Reporting Station
Overcast Overcast  
Wind Chill: 57°   Ceiling: 3600
Heat Index: 57°   Visibility: 10mi
Dew Point: 42°   Wind: 10mph
Humidity: 57%   Direction: 340°NNW
Pressure: 29.84"   Gusts: NA
Location:  40.5013°N, 74.5325°W
Report Text: KSMQ 241353Z AUTO 34009KT 10SM OVC036 14/06 A2984 RMK AO2 SLP104 T01390056
Loading
Personal Weather Stations






























Interactive Weather Map
Tropical Storm Tracking
New forecast layout! Learn more

10-Day Weather Forecast

Advertisements
Track Severe Weather on mobile